Ole-arvid Nergaard — LLAY — position and weather

sailwx.info

Track history (hours):
 
Tides and Currents Weather Stations Pressure Air Temp Water Temp Dewpoint Dewpoint Depression Visibility Wind Speed Wind Dir Waves Ship Positions

Ole-arvid Nergaard

Last reported at 2014-Aug-23 03:29 UTC. Time now 2014-Aug-31 02:30 UTC.
Position N 66°40' E 011°57'.

Length 55 m; draft 7.2 m.

Type: Fishing. MMSI: 259656000.

Date/timePositionNaut miles runAvg speedWind from/ knotsBaromVisibWave heightAir tempDewpointWater temp
2014-Aug-23 03:29N 66°40' E 011°57'8512.2
2014-Aug-22 20:33N 67°47' E 014°09'94 8.1
2014-Aug-22 09:03N 69°01' E 016°46'66 3.6
2014-Aug-21 14:33N 69°45' E 019°04'6 6.1
2014-Aug-21 13:33N 69°39' E 018°58'0 0.0
2014-Aug-21 12:33N 69°39' E 018°58'0 0.0
2014-Aug-21 11:33N 69°39' E 018°58'0 0.0
2014-Aug-21 10:34N 69°39' E 018°58'0 0.0
2014-Aug-21 09:33N 69°39' E 018°58'0 0.0
2014-Aug-21 08:33N 69°39' E 018°58'0 0.0
2014-Aug-21 07:33N 69°39' E 018°58'0 0.0
2014-Aug-21 06:33N 69°39' E 018°58'0 0.0
2014-Aug-21 05:33N 69°39' E 018°58'0 0.0
2014-Aug-21 04:33N 69°39' E 018°58'0 0.0
2014-Aug-21 03:33N 69°39' E 018°58'0 0.0
2014-Aug-21 02:33N 69°39' E 018°58'0 0.0
2014-Aug-21 01:33N 69°39' E 018°58'0 0.0
2014-Aug-21 00:33N 69°39' E 018°58'1 0.7
2014-Aug-20 23:33N 69°40' E 018°60'4 4.2
2014-Aug-20 22:33N 69°44' E 019°02'2 2.3
2014-Aug-20 21:33N 69°42' E 019°04'0 0.1
2014-Aug-20 20:32N 69°42' E 019°05'1 1.2
2014-Aug-20 19:33N 69°43' E 019°03'4 4.2
2014-Aug-20 18:33N 69°47' E 019°09'  
Track history (hours):
 
Tides and Currents Weather Stations Pressure Air Temp Water Temp Dewpoint Dewpoint Depression Visibility Wind Speed Wind Dir Waves Ship Positions

Ole-arvid Nergaard

Last reported at 2014-Aug-23 03:29 UTC. Time now 2014-Aug-31 02:30 UTC.
Position N 66°40' E 011°57'.

Length 55 m; draft 7.2 m.

Type: Fishing. MMSI: 259656000.

Date/timePositionNaut miles runAvg speedWind from/ knotsBaromVisibWave heightAir tempDewpointWater temp
2014-Aug-23 03:29N 66°40' E 011°57'8512.2
2014-Aug-22 20:33N 67°47' E 014°09'94 8.1
2014-Aug-22 09:03N 69°01' E 016°46'66 3.6
2014-Aug-21 14:33N 69°45' E 019°04'6 6.1
2014-Aug-21 13:33N 69°39' E 018°58'0 0.0
2014-Aug-21 12:33N 69°39' E 018°58'0 0.0
2014-Aug-21 11:33N 69°39' E 018°58'0 0.0
2014-Aug-21 10:34N 69°39' E 018°58'0 0.0
2014-Aug-21 09:33N 69°39' E 018°58'0 0.0
2014-Aug-21 08:33N 69°39' E 018°58'0 0.0
2014-Aug-21 07:33N 69°39' E 018°58'0 0.0
2014-Aug-21 06:33N 69°39' E 018°58'0 0.0
2014-Aug-21 05:33N 69°39' E 018°58'0 0.0
2014-Aug-21 04:33N 69°39' E 018°58'0 0.0
2014-Aug-21 03:33N 69°39' E 018°58'0 0.0
2014-Aug-21 02:33N 69°39' E 018°58'0 0.0
2014-Aug-21 01:33N 69°39' E 018°58'0 0.0
2014-Aug-21 00:33N 69°39' E 018°58'1 0.7
2014-Aug-20 23:33N 69°40' E 018°60'4 4.2
2014-Aug-20 22:33N 69°44' E 019°02'2 2.3
2014-Aug-20 21:33N 69°42' E 019°04'0 0.1
2014-Aug-20 20:32N 69°42' E 019°05'1 1.2
2014-Aug-20 19:33N 69°43' E 019°03'4 4.2
2014-Aug-20 18:33N 69°47' E 019°09'  

Dump ship's entire track history